createdAt,value
2018-09-22T00:00:11.847Z,1007.59
2018-09-22T00:01:11.842Z,1007.6
2018-09-22T00:02:11.816Z,1007.63
2018-09-22T00:03:11.796Z,1007.66
2018-09-22T00:04:11.781Z,1007.67
2018-09-22T00:05:11.764Z,1007.68
2018-09-22T00:06:11.748Z,1007.66
2018-09-22T00:07:11.739Z,1007.7
2018-09-22T00:08:11.719Z,1007.72
2018-09-22T00:09:11.702Z,1007.74
2018-09-22T00:10:11.688Z,1007.84
2018-09-22T00:11:11.670Z,1007.85
2018-09-22T00:12:11.649Z,1007.76
2018-09-22T00:13:11.637Z,1007.76
2018-09-22T00:14:11.620Z,1007.74
2018-09-22T00:15:11.607Z,1007.74
2018-09-22T00:16:11.586Z,1007.71
2018-09-22T00:17:11.577Z,1007.71
2018-09-22T00:18:11.552Z,1007.65
2018-09-22T00:19:11.537Z,1007.74
2018-09-22T00:20:11.523Z,1007.74
2018-09-22T00:21:11.503Z,1007.77
2018-09-22T00:22:11.487Z,1007.77
2018-09-22T00:23:11.472Z,1007.78
2018-09-22T00:24:11.454Z,1007.78
2018-09-22T00:25:11.438Z,1007.91
2018-09-22T00:26:11.425Z,1007.95
2018-09-22T00:27:11.416Z,1007.85
2018-09-22T00:28:11.394Z,1007.86
2018-09-22T00:29:11.373Z,1007.88
2018-09-22T00:30:11.363Z,1007.88
2018-09-22T00:31:11.341Z,1007.91
2018-09-22T00:32:11.323Z,1007.92
2018-09-22T00:33:11.311Z,1007.91
2018-09-22T00:34:11.293Z,1007.95
2018-09-22T00:35:11.277Z,1007.96
2018-09-22T00:36:11.262Z,1008.02
2018-09-22T00:37:11.249Z,1008.01
2018-09-22T00:38:11.229Z,1007.99
2018-09-22T00:39:11.215Z,1007.96
2018-09-22T00:40:11.193Z,1008.07
2018-09-22T00:41:11.180Z,1008.03
2018-09-22T00:42:11.161Z,1007.99
2018-09-22T00:43:11.145Z,1007.93
2018-09-22T00:44:11.129Z,1008.09
2018-09-22T00:45:11.113Z,1007.97
2018-09-22T00:46:11.095Z,1008.05
2018-09-22T00:47:11.081Z,1008.09
2018-09-22T00:48:11.063Z,1008.12
2018-09-22T00:49:11.050Z,1008.06
2018-09-22T00:50:11.238Z,1008.06
2018-09-22T00:51:11.013Z,1008.02
2018-09-22T00:52:11.006Z,1007.99
2018-09-22T00:53:10.986Z,1008.08
2018-09-22T00:54:10.971Z,1008.05
2018-09-22T00:55:10.950Z,1008.05
2018-09-22T00:56:10.933Z,1008.08
2018-09-22T00:57:10.917Z,1008.09
2018-09-22T00:58:10.907Z,1008.03
2018-09-22T00:59:10.888Z,1008.05
2018-09-22T01:00:10.870Z,1008.08
2018-09-22T01:01:10.855Z,1008.06
2018-09-22T01:02:10.834Z,1008.14
2018-09-22T01:03:10.819Z,1008.16
2018-09-22T01:04:10.801Z,1008.16
2018-09-22T01:05:10.790Z,1008.24
2018-09-22T01:06:10.769Z,1008.25
2018-09-22T01:07:10.754Z,1008.26
2018-09-22T01:08:10.737Z,1008.29
2018-09-22T01:09:10.721Z,1008.26
2018-09-22T01:10:10.706Z,1008.26
2018-09-22T01:11:10.690Z,1008.28
2018-09-22T01:12:10.675Z,1008.3
2018-09-22T01:13:10.656Z,1008.34
2018-09-22T01:14:10.663Z,1008.32
2018-09-22T01:15:10.628Z,1008.39
2018-09-22T01:16:10.617Z,1008.45
2018-09-22T01:17:10.591Z,1008.45
2018-09-22T01:18:10.577Z,1008.46
2018-09-22T01:19:10.559Z,1008.5
2018-09-22T01:20:10.544Z,1008.56
2018-09-22T01:21:10.526Z,1008.57
2018-09-22T01:22:10.512Z,1008.49
2018-09-22T01:23:10.497Z,1008.56
2018-09-22T01:24:10.476Z,1008.56
2018-09-22T01:25:10.461Z,1008.49
2018-09-22T01:26:10.445Z,1008.52
2018-09-22T01:27:10.429Z,1008.57
2018-09-22T01:28:10.412Z,1008.55
2018-09-22T01:29:10.396Z,1008.64
2018-09-22T01:30:10.381Z,1008.66
2018-09-22T01:31:10.364Z,1008.6
2018-09-22T01:32:10.348Z,1008.63
2018-09-22T01:33:10.334Z,1008.61
2018-09-22T01:34:10.316Z,1008.56
2018-09-22T01:35:10.299Z,1008.62
2018-09-22T01:36:10.283Z,1008.6
2018-09-22T01:37:10.266Z,1008.62
2018-09-22T01:38:10.251Z,1008.65
2018-09-22T01:39:10.234Z,1008.62
2018-09-22T01:40:10.218Z,1008.65
2018-09-22T01:41:10.203Z,1008.66
2018-09-22T01:42:10.186Z,1008.7
2018-09-22T01:43:10.175Z,1008.69
2018-09-22T01:44:10.157Z,1008.67
2018-09-22T01:45:10.138Z,1008.66
2018-09-22T01:46:10.125Z,1008.68
2018-09-22T01:47:10.106Z,1008.73
2018-09-22T01:48:10.089Z,1008.76
2018-09-22T01:49:10.073Z,1008.78
2018-09-22T01:50:10.058Z,1008.84
2018-09-22T01:51:10.042Z,1008.8
2018-09-22T01:52:10.026Z,1008.77
2018-09-22T01:53:10.009Z,1008.87
2018-09-22T01:54:09.993Z,1008.83
2018-09-22T01:55:09.978Z,1008.88
2018-09-22T01:56:09.963Z,1008.87
2018-09-22T01:57:09.947Z,1008.91
2018-09-22T01:58:09.929Z,1008.89
2018-09-22T01:59:09.918Z,1008.9
2018-09-22T02:00:09.897Z,1008.89
2018-09-22T02:01:09.962Z,1008.93
2018-09-22T02:02:09.864Z,1008.93
2018-09-22T02:03:09.851Z,1008.91
2018-09-22T02:04:09.832Z,1008.89
2018-09-22T02:05:09.820Z,1008.95
2018-09-22T02:06:09.800Z,1008.94
2018-09-22T02:07:09.783Z,1008.97
2018-09-22T02:08:09.771Z,1009.02
2018-09-22T02:09:09.752Z,1009.02
2018-09-22T02:10:09.737Z,1009.01
2018-09-22T02:11:09.721Z,1008.98
2018-09-22T02:12:09.704Z,1009.04
2018-09-22T02:13:09.687Z,1008.99
2018-09-22T02:14:09.674Z,1009.02
2018-09-22T02:15:09.659Z,1008.96
2018-09-22T02:16:09.639Z,1008.96
2018-09-22T02:17:09.624Z,1008.94
2018-09-22T02:18:09.610Z,1008.97
2018-09-22T02:19:09.591Z,1008.92
2018-09-22T02:20:09.575Z,1008.95
2018-09-22T02:21:09.558Z,1008.95
2018-09-22T02:22:09.548Z,1008.92
2018-09-22T02:23:09.528Z,1009.01
2018-09-22T02:24:09.511Z,1008.97
2018-09-22T02:25:09.504Z,1008.97
2018-09-22T02:26:09.476Z,1008.97
2018-09-22T02:27:09.461Z,1008.97
2018-09-22T02:28:09.444Z,1009.03
2018-09-22T02:29:09.432Z,1008.96
2018-09-22T02:30:09.412Z,1009
2018-09-22T02:31:09.397Z,1008.97
2018-09-22T02:32:09.382Z,1009
2018-09-22T02:33:09.363Z,1009.05
2018-09-22T02:34:09.348Z,1009.11
2018-09-22T02:35:09.332Z,1009.12
2018-09-22T02:36:09.315Z,1009.13
2018-09-22T02:37:09.300Z,1009.16
2018-09-22T02:38:09.283Z,1009.16
2018-09-22T02:39:09.267Z,1009.12
2018-09-22T02:40:09.250Z,1009.15
2018-09-22T02:41:09.233Z,1009.16
2018-09-22T02:42:09.223Z,1009.16
2018-09-22T02:43:09.202Z,1009.18
2018-09-22T02:44:09.185Z,1009.19
2018-09-22T02:45:09.169Z,1009.24
2018-09-22T02:46:09.153Z,1009.2
2018-09-22T02:47:09.136Z,1009.24
2018-09-22T02:48:09.120Z,1009.21
2018-09-22T02:49:09.106Z,1009.13
2018-09-22T02:50:09.293Z,1009.24
2018-09-22T02:51:09.071Z,1009.19
2018-09-22T02:52:09.057Z,1009.14
2018-09-22T02:53:09.038Z,1009.17
2018-09-22T02:54:09.022Z,1009.2
2018-09-22T02:55:09.006Z,1009.21
2018-09-22T02:56:08.989Z,1009.19
2018-09-22T02:57:08.974Z,1009.19
2018-09-22T02:58:08.959Z,1009.24
2018-09-22T02:59:08.941Z,1009.29
2018-09-22T03:00:08.929Z,1009.25
2018-09-22T03:01:08.908Z,1009.27
2018-09-22T03:02:08.895Z,1009.28
2018-09-22T03:03:08.876Z,1009.27
2018-09-22T03:04:08.861Z,1009.3
2018-09-22T03:05:08.851Z,1009.34
2018-09-22T03:06:08.828Z,1009.33
2018-09-22T03:07:08.815Z,1009.33
2018-09-22T03:08:08.796Z,1009.28
2018-09-22T03:09:08.780Z,1009.24
2018-09-22T03:10:08.768Z,1009.26
2018-09-22T03:11:08.748Z,1009.32
2018-09-22T03:12:08.732Z,1009.37
2018-09-22T03:13:08.715Z,1009.35
2018-09-22T03:14:08.698Z,1009.31
2018-09-22T03:15:09.153Z,1009.3
2018-09-22T03:16:08.666Z,1009.34
2018-09-22T03:17:08.650Z,1009.36
2018-09-22T03:18:08.633Z,1009.41
2018-09-22T03:19:08.620Z,1009.41
2018-09-22T03:20:08.661Z,1009.39
2018-09-22T03:21:08.586Z,1009.49
2018-09-22T03:22:08.569Z,1009.46
2018-09-22T03:23:08.554Z,1009.45
2018-09-22T03:24:08.535Z,1009.45
2018-09-22T03:25:08.556Z,1009.37
2018-09-22T03:26:08.506Z,1009.35
2018-09-22T03:27:08.487Z,1009.38
2018-09-22T03:28:08.473Z,1009.34
2018-09-22T03:29:08.454Z,1009.38
2018-09-22T03:30:08.447Z,1009.42
2018-09-22T03:31:08.424Z,1009.42
2018-09-22T03:32:08.408Z,1009.45
2018-09-22T03:33:08.390Z,1009.47
2018-09-22T03:34:08.376Z,1009.51
2018-09-22T03:35:08.361Z,1009.49
2018-09-22T03:36:08.343Z,1009.4
2018-09-22T03:37:08.325Z,1009.28
2018-09-22T03:38:08.311Z,1009.34
2018-09-22T03:39:08.293Z,1009.36
2018-09-22T03:40:08.277Z,1009.48
2018-09-22T03:41:08.262Z,1009.46
2018-09-22T03:42:08.244Z,1009.48
2018-09-22T03:43:08.228Z,1009.5
2018-09-22T03:44:08.214Z,1009.51
2018-09-22T03:45:08.197Z,1009.57
2018-09-22T03:46:08.180Z,1009.55
2018-09-22T03:47:08.167Z,1009.51
2018-09-22T03:48:08.147Z,1009.55
2018-09-22T03:49:08.137Z,1009.54
2018-09-22T03:50:08.114Z,1009.53
2018-09-22T03:51:08.098Z,1009.52
2018-09-22T03:52:08.082Z,1009.55
2018-09-22T03:53:08.066Z,1009.57
2018-09-22T03:54:08.050Z,1009.54
2018-09-22T03:55:08.034Z,1009.53
2018-09-22T03:56:08.018Z,1009.54
2018-09-22T03:57:08.001Z,1009.55
2018-09-22T03:59:07.966Z,1009.54
2018-09-22T04:00:07.955Z,1009.51
2018-09-22T04:01:07.935Z,1009.53
2018-09-22T04:02:07.920Z,1009.57
2018-09-22T04:03:07.903Z,1009.59
2018-09-22T04:04:07.890Z,1009.61
2018-09-22T04:05:07.872Z,1009.59
2018-09-22T04:06:07.853Z,1009.65
2018-09-22T04:07:07.836Z,1009.59
2018-09-22T04:08:07.821Z,1009.6
2018-09-22T04:09:07.806Z,1009.57
2018-09-22T04:10:07.788Z,1009.58
2018-09-22T04:11:07.784Z,1009.59
2018-09-22T04:12:07.759Z,1009.63
2018-09-22T04:13:07.745Z,1009.6
2018-09-22T04:14:07.725Z,1009.61
2018-09-22T04:15:07.709Z,1009.69
2018-09-22T04:16:07.692Z,1009.68
2018-09-22T04:17:07.674Z,1009.71
2018-09-22T04:18:07.658Z,1009.68
2018-09-22T04:19:07.642Z,1009.69
2018-09-22T04:20:07.626Z,1009.75
2018-09-22T04:21:07.610Z,1009.66
2018-09-22T04:22:07.593Z,1009.66
2018-09-22T04:23:07.577Z,1009.64
2018-09-22T04:24:07.560Z,1009.63
2018-09-22T04:25:07.547Z,1009.72
2018-09-22T04:26:07.528Z,1009.67
2018-09-22T04:27:07.515Z,1009.69
2018-09-22T04:28:07.495Z,1009.75
2018-09-22T04:29:07.491Z,1009.65
2018-09-22T04:30:07.469Z,1009.65
2018-09-22T04:31:07.446Z,1009.68
2018-09-22T04:32:07.429Z,1009.76
2018-09-22T04:33:07.445Z,1009.8
2018-09-22T04:34:07.400Z,1009.88
2018-09-22T04:35:07.382Z,1009.83
2018-09-22T04:36:07.373Z,1009.88
2018-09-22T04:37:07.349Z,1009.91
2018-09-22T04:38:07.332Z,1009.95
2018-09-22T04:39:07.317Z,1009.97
2018-09-22T04:40:07.304Z,1009.96
2018-09-22T04:41:07.285Z,1009.95
2018-09-22T04:42:07.267Z,1009.96
2018-09-22T04:43:07.252Z,1009.95
2018-09-22T04:44:07.237Z,1009.98
2018-09-22T04:45:07.218Z,1010.02
2018-09-22T04:46:07.201Z,1009.98
2018-09-22T04:47:07.186Z,1009.98
2018-09-22T04:48:07.170Z,1009.98
2018-09-22T04:49:07.156Z,1009.97
2018-09-22T04:50:07.340Z,1009.93
2018-09-22T04:51:07.123Z,1009.9
2018-09-22T04:52:07.106Z,1009.98
2018-09-22T04:53:07.095Z,1010.06
2018-09-22T04:54:07.074Z,1010.12
2018-09-22T04:55:07.059Z,1010.11
2018-09-22T04:56:07.041Z,1010.14
2018-09-22T04:57:07.023Z,1010.12
2018-09-22T04:58:07.006Z,1010.11
2018-09-22T04:59:06.993Z,1010.12
2018-09-22T05:00:06.976Z,1010.13
2018-09-22T05:01:06.957Z,1010.15
2018-09-22T05:02:07.153Z,1010.2
2018-09-22T05:03:06.929Z,1010.22
2018-09-22T05:04:06.912Z,1010.2
2018-09-22T05:05:06.892Z,1010.24
2018-09-22T05:06:06.881Z,1010.23
2018-09-22T05:07:06.869Z,1010.23
2018-09-22T05:08:06.851Z,1010.25
2018-09-22T05:09:06.838Z,1010.27
2018-09-22T05:10:06.812Z,1010.29
2018-09-22T05:11:06.799Z,1010.32
2018-09-22T05:12:06.791Z,1010.33
2018-09-22T05:13:06.767Z,1010.3
2018-09-22T05:14:06.757Z,1010.33
2018-09-22T05:15:06.736Z,1010.3
2018-09-22T05:16:06.717Z,1010.28
2018-09-22T05:17:06.729Z,1010.27
2018-09-22T05:18:06.683Z,1010.36
2018-09-22T05:19:06.666Z,1010.31
2018-09-22T05:20:06.652Z,1010.33
2018-09-22T05:21:06.636Z,1010.36
2018-09-22T05:22:06.620Z,1010.36
2018-09-22T05:23:06.603Z,1010.4
2018-09-22T05:24:06.588Z,1010.45
2018-09-22T05:25:06.572Z,1010.4
2018-09-22T05:26:06.554Z,1010.44
2018-09-22T05:27:06.545Z,1010.45
2018-09-22T05:28:06.521Z,1010.45
2018-09-22T05:29:06.505Z,1010.44
2018-09-22T05:30:06.489Z,1010.44
2018-09-22T05:31:06.472Z,1010.45
2018-09-22T05:32:06.456Z,1010.49
2018-09-22T05:33:06.444Z,1010.5
2018-09-22T05:34:06.425Z,1010.52
2018-09-22T05:35:06.415Z,1010.55
2018-09-22T05:36:06.393Z,1010.57
2018-09-22T05:37:06.379Z,1010.58
2018-09-22T05:38:06.362Z,1010.63
2018-09-22T05:39:06.343Z,1010.55
2018-09-22T05:40:06.327Z,1010.54
2018-09-22T05:41:06.314Z,1010.56
2018-09-22T05:42:06.295Z,1010.57
2018-09-22T05:43:06.277Z,1010.62
2018-09-22T05:44:06.263Z,1010.67
2018-09-22T05:45:06.250Z,1010.64
2018-09-22T05:46:06.233Z,1010.62
2018-09-22T05:47:06.213Z,1010.61
2018-09-22T05:48:06.197Z,1010.65
2018-09-22T05:49:06.183Z,1010.64
2018-09-22T05:50:06.165Z,1010.64
2018-09-22T05:51:06.150Z,1010.58
2018-09-22T05:52:06.133Z,1010.58
2018-09-22T05:53:06.118Z,1010.58
2018-09-22T05:54:06.104Z,1010.6
2018-09-22T05:55:06.089Z,1010.63
2018-09-22T05:56:06.071Z,1010.6
2018-09-22T05:57:06.054Z,1010.6
2018-09-22T05:58:06.160Z,1010.6
2018-09-22T05:59:06.021Z,1010.62
2018-09-22T06:00:06.004Z,1010.63
2018-09-22T06:01:05.988Z,1010.66
2018-09-22T06:02:05.975Z,1010.74
2018-09-22T06:03:05.958Z,1010.7
2018-09-22T06:04:05.944Z,1010.7
2018-09-22T06:05:05.925Z,1010.64
2018-09-22T06:06:05.909Z,1010.62
2018-09-22T06:07:05.893Z,1010.6
2018-09-22T06:08:05.880Z,1010.58
2018-09-22T06:09:05.864Z,1010.52
2018-09-22T06:10:05.844Z,1010.57
2018-09-22T06:11:05.830Z,1010.65
2018-09-22T06:12:05.811Z,1010.68
2018-09-22T06:13:05.797Z,1010.68
2018-09-22T06:14:05.781Z,1010.67
2018-09-22T06:15:05.766Z,1010.69
2018-09-22T06:16:05.750Z,1010.71
2018-09-22T06:17:05.736Z,1010.72
2018-09-22T06:18:05.717Z,1010.73
2018-09-22T06:19:05.703Z,1010.74
2018-09-22T06:20:05.686Z,1010.73
2018-09-22T06:21:05.671Z,1010.7
2018-09-22T06:22:05.664Z,1010.67
2018-09-22T06:23:05.658Z,1010.71
2018-09-22T06:24:05.623Z,1010.73
2018-09-22T06:25:05.607Z,1010.69
2018-09-22T06:26:05.590Z,1010.71
2018-09-22T06:27:05.579Z,1010.73
2018-09-22T06:28:05.562Z,1010.76
2018-09-22T06:29:05.543Z,1010.74
2018-09-22T06:30:05.528Z,1010.71
2018-09-22T06:31:05.511Z,1010.74
2018-09-22T06:32:05.494Z,1010.74
2018-09-22T06:33:05.480Z,1010.8
2018-09-22T06:34:05.463Z,1010.81
2018-09-22T06:35:05.447Z,1010.85
2018-09-22T06:36:05.435Z,1010.83
2018-09-22T06:37:05.416Z,1010.84
2018-09-22T06:38:05.403Z,1010.8
2018-09-22T06:39:05.409Z,1010.78
2018-09-22T06:40:05.369Z,1010.77
2018-09-22T06:41:05.356Z,1010.78
2018-09-22T06:42:05.339Z,1010.8
2018-09-22T06:43:05.324Z,1010.84
2018-09-22T06:44:05.310Z,1010.81
2018-09-22T06:45:05.291Z,1010.85
2018-09-22T06:46:05.282Z,1010.84
2018-09-22T06:47:05.264Z,1010.81
2018-09-22T06:48:05.246Z,1010.79
2018-09-22T06:49:05.229Z,1010.79
2018-09-22T06:50:05.216Z,1010.81
2018-09-22T06:51:05.199Z,1010.85
2018-09-22T06:52:05.182Z,1010.84
2018-09-22T06:53:05.167Z,1010.88
2018-09-22T06:54:05.153Z,1010.88
2018-09-22T06:55:05.139Z,1010.93
2018-09-22T06:56:05.130Z,1010.93
2018-09-22T06:57:05.114Z,1010.9
2018-09-22T06:58:05.091Z,1010.85
2018-09-22T06:59:05.082Z,1010.88
2018-09-22T07:00:05.060Z,1010.87
2018-09-22T07:01:05.045Z,1010.88
2018-09-22T07:02:05.029Z,1010.81
2018-09-22T07:03:05.013Z,1010.82
2018-09-22T07:04:04.998Z,1010.87
2018-09-22T07:05:04.987Z,1010.88
2018-09-22T07:06:04.975Z,1010.89
2018-09-22T07:07:04.960Z,1010.88
2018-09-22T07:08:04.946Z,1010.9
2018-09-22T07:09:04.922Z,1010.92
2018-09-22T07:10:04.907Z,1010.92
2018-09-22T07:11:04.893Z,1010.94
2018-09-22T07:12:04.881Z,1010.95
2018-09-22T07:13:04.864Z,1010.95
2018-09-22T07:14:04.849Z,1010.98
2018-09-22T07:15:04.831Z,1010.95
2018-09-22T07:16:04.820Z,1010.88
2018-09-22T07:17:04.802Z,1010.9
2018-09-22T07:18:04.786Z,1010.94
2018-09-22T07:19:04.771Z,1010.94
2018-09-22T07:20:04.756Z,1011
2018-09-22T07:21:04.742Z,1010.98
2018-09-22T07:22:04.727Z,1010.99
2018-09-22T07:23:04.714Z,1011
2018-09-22T07:24:04.696Z,1010.98
2018-09-22T07:25:04.681Z,1011.03
2018-09-22T07:26:04.668Z,1011.04
2018-09-22T07:27:04.653Z,1011.08
2018-09-22T07:28:04.642Z,1011.05
2018-09-22T07:29:04.623Z,1011.07
2018-09-22T07:30:04.608Z,1011.11
2018-09-22T07:31:04.593Z,1011.14
2018-09-22T07:32:04.580Z,1011.08
2018-09-22T07:33:04.562Z,1011.11
2018-09-22T07:34:04.547Z,1011.12
2018-09-22T07:35:04.533Z,1011.12
2018-09-22T07:36:04.519Z,1011.23
2018-09-22T07:37:04.506Z,1011.26
2018-09-22T07:38:04.489Z,1011.23
2018-09-22T07:39:04.475Z,1011.22
2018-09-22T07:40:04.459Z,1011.19
2018-09-22T07:41:04.450Z,1011.2
2018-09-22T07:42:04.429Z,1011.31
2018-09-22T07:43:04.417Z,1011.24
2018-09-22T07:44:04.402Z,1011.26
2018-09-22T07:45:04.390Z,1011.21
2018-09-22T07:46:04.375Z,1011.15
2018-09-22T07:47:04.357Z,1011.23
2018-09-22T07:48:04.342Z,1011.16
2018-09-22T07:49:04.328Z,1011.18
2018-09-22T07:50:04.316Z,1011.2
2018-09-22T07:51:04.299Z,1011.26
2018-09-22T07:52:04.287Z,1011.3
2018-09-22T07:53:04.271Z,1011.22
2018-09-22T07:54:04.257Z,1011.16
2018-09-22T07:55:04.242Z,1011.14
2018-09-22T07:56:04.228Z,1011.15
2018-09-22T07:57:04.244Z,1011.24
2018-09-22T07:58:04.200Z,1011.23
2018-09-22T07:59:04.184Z,1011.29
2018-09-22T08:00:04.179Z,1011.22
2018-09-22T08:01:04.157Z,1011.15
2018-09-22T08:02:04.143Z,1011.15
2018-09-22T08:03:04.126Z,1011.2
2018-09-22T08:04:04.113Z,1011.23
2018-09-22T08:05:04.099Z,1011.24
2018-09-22T08:06:04.083Z,1011.22
2018-09-22T08:07:04.070Z,1011.23
2018-09-22T08:08:04.058Z,1011.21
2018-09-22T08:09:04.044Z,1011.16
2018-09-22T08:10:04.025Z,1011.23
2018-09-22T08:11:04.012Z,1011.22
2018-09-22T08:12:03.999Z,1011.19
2018-09-22T08:13:03.984Z,1011.22
2018-09-22T08:14:03.971Z,1011.23
2018-09-22T08:15:03.956Z,1011.18
2018-09-22T08:16:03.944Z,1011.18
2018-09-22T08:17:03.929Z,1011.23
2018-09-22T08:18:03.918Z,1011.3
2018-09-22T08:19:03.903Z,1011.35
2018-09-22T08:20:03.891Z,1011.35
2018-09-22T08:21:03.873Z,1011.32
2018-09-22T08:22:03.861Z,1011.38
2018-09-22T08:23:03.853Z,1011.38
2018-09-22T08:24:03.836Z,1011.36
2018-09-22T08:25:03.823Z,1011.35
2018-09-22T08:26:03.804Z,1011.42
2018-09-22T08:27:03.790Z,1011.36
2018-09-22T08:28:03.776Z,1011.4
2018-09-22T08:29:03.762Z,1011.37
2018-09-22T08:30:03.747Z,1011.44
2018-09-22T08:31:03.732Z,1011.39
2018-09-22T08:32:03.720Z,1011.46
2018-09-22T08:33:03.705Z,1011.48
2018-09-22T08:34:03.691Z,1011.49
2018-09-22T08:35:03.677Z,1011.51
2018-09-22T08:36:03.728Z,1011.48
2018-09-22T08:37:03.782Z,1011.5
2018-09-22T08:38:03.638Z,1011.46
2018-09-22T08:39:03.630Z,1011.51
2018-09-22T08:40:03.610Z,1011.44
2018-09-22T08:41:03.595Z,1011.45
2018-09-22T08:42:03.584Z,1011.46
2018-09-22T08:43:03.569Z,1011.41
2018-09-22T08:44:03.555Z,1011.42
2018-09-22T08:45:03.545Z,1011.36
2018-09-22T08:46:03.528Z,1011.4
2018-09-22T08:47:03.518Z,1011.41
2018-09-22T08:48:03.500Z,1011.43
2018-09-22T08:49:03.486Z,1011.47
2018-09-22T08:50:03.610Z,1011.55
2018-09-22T08:51:03.501Z,1011.52
2018-09-22T08:52:03.447Z,1011.52
2018-09-22T08:53:03.431Z,1011.52
2018-09-22T08:54:03.419Z,1011.51
2018-09-22T08:55:03.405Z,1011.53
2018-09-22T08:56:03.394Z,1011.57
2018-09-22T08:57:03.380Z,1011.5
2018-09-22T08:58:03.364Z,1011.56
2018-09-22T08:59:03.354Z,1011.56
2018-09-22T09:00:03.337Z,1011.57
2018-09-22T09:01:03.326Z,1011.59
2018-09-22T09:02:03.316Z,1011.62
2018-09-22T09:03:03.296Z,1011.57
2018-09-22T09:04:03.285Z,1011.61
2018-09-22T09:05:03.327Z,1011.53
2018-09-22T09:06:03.261Z,1011.55
2018-09-22T09:07:03.245Z,1011.57
2018-09-22T09:08:03.231Z,1011.54
2018-09-22T09:09:03.220Z,1011.58
2018-09-22T09:10:03.204Z,1011.59
2018-09-22T09:11:03.193Z,1011.6
2018-09-22T09:12:03.179Z,1011.55
2018-09-22T09:13:03.167Z,1011.56
2018-09-22T09:14:03.203Z,1011.54
2018-09-22T09:15:03.143Z,1011.49
2018-09-22T09:16:03.126Z,1011.47
2018-09-22T09:17:03.200Z,1011.51
2018-09-22T09:18:03.103Z,1011.55
2018-09-22T09:19:03.091Z,1011.57
2018-09-22T09:20:03.075Z,1011.53
2018-09-22T09:21:03.065Z,1011.48
2018-09-22T09:22:03.050Z,1011.52
2018-09-22T09:23:03.037Z,1011.49
2018-09-22T09:24:03.026Z,1011.46
2018-09-22T09:25:03.014Z,1011.48
2018-09-22T09:26:03.003Z,1011.51
2018-09-22T09:27:02.999Z,1011.54
2018-09-22T09:28:02.976Z,1011.47
2018-09-22T09:29:02.965Z,1011.44
2018-09-22T09:30:02.950Z,1011.47
2018-09-22T09:31:02.939Z,1011.5
2018-09-22T09:32:02.927Z,1011.49
2018-09-22T09:33:02.914Z,1011.52
2018-09-22T09:34:02.909Z,1011.49
2018-09-22T09:35:02.891Z,1011.57
2018-09-22T09:36:02.877Z,1011.48
2018-09-22T09:37:02.862Z,1011.38
2018-09-22T09:38:02.854Z,1011.38
2018-09-22T09:39:02.838Z,1011.32
2018-09-22T09:40:02.826Z,1011.29
2018-09-22T09:41:02.813Z,1011.29
2018-09-22T09:42:02.802Z,1011.38
2018-09-22T09:43:02.791Z,1011.32
2018-09-22T09:44:02.778Z,1011.27
2018-09-22T09:45:02.766Z,1011.21
2018-09-22T09:46:02.753Z,1011.19
2018-09-22T09:47:02.745Z,1011.18
2018-09-22T09:48:02.731Z,1011.16
2018-09-22T09:49:02.730Z,1011.17
2018-09-22T09:50:02.704Z,1011.11
2018-09-22T09:51:02.693Z,1011.13
2018-09-22T09:52:02.681Z,1011.06
2018-09-22T09:53:02.669Z,1010.98
2018-09-22T09:54:02.691Z,1011.02
2018-09-22T09:55:02.668Z,1011.09
2018-09-22T09:56:02.640Z,1011.01
2018-09-22T09:57:02.621Z,1011.06
2018-09-22T09:58:02.609Z,1011.07
2018-09-22T09:59:02.598Z,1010.99
2018-09-22T10:00:02.586Z,1011.07
2018-09-22T10:01:02.583Z,1010.98
2018-09-22T10:02:02.563Z,1010.97
2018-09-22T10:03:02.557Z,1010.97
2018-09-22T10:04:02.541Z,1010.99
2018-09-22T10:05:02.528Z,1011
2018-09-22T10:06:02.515Z,1010.96
2018-09-22T10:07:02.504Z,1010.99
2018-09-22T10:08:02.494Z,1011.02
2018-09-22T10:09:02.482Z,1011.02
2018-09-22T10:10:02.472Z,1010.91
2018-09-22T10:11:02.458Z,1010.91
2018-09-22T10:12:02.447Z,1010.89
2018-09-22T10:13:02.439Z,1010.86
2018-09-22T10:14:02.424Z,1010.93
2018-09-22T10:15:02.415Z,1010.78
2018-09-22T10:16:02.401Z,1010.83
2018-09-22T10:17:02.391Z,1010.74
2018-09-22T10:18:02.378Z,1010.72
2018-09-22T10:19:02.366Z,1010.74
2018-09-22T10:20:02.367Z,1010.79
2018-09-22T10:21:02.343Z,1010.7
2018-09-22T10:22:02.332Z,1010.7
2018-09-22T10:23:02.320Z,1010.74
2018-09-22T10:24:02.307Z,1010.71
2018-09-22T10:25:02.296Z,1010.81
2018-09-22T10:26:02.285Z,1010.75
2018-09-22T10:27:02.275Z,1010.73
2018-09-22T10:28:02.318Z,1010.81
2018-09-22T10:29:02.249Z,1010.75
2018-09-22T10:30:02.241Z,1010.82
2018-09-22T10:31:02.227Z,1010.81
2018-09-22T10:32:02.267Z,1010.71
2018-09-22T10:33:02.216Z,1010.87
2018-09-22T10:34:02.193Z,1010.87
2018-09-22T10:35:02.180Z,1010.9
2018-09-22T10:36:02.169Z,1010.85
2018-09-22T10:37:02.156Z,1010.84
2018-09-22T10:38:02.154Z,1010.76
2018-09-22T10:39:02.139Z,1010.83
2018-09-22T10:40:02.124Z,1010.82
2018-09-22T10:41:02.111Z,1010.81
2018-09-22T10:42:02.102Z,1010.84
2018-09-22T10:43:02.090Z,1010.9
2018-09-22T10:44:02.075Z,1010.93
2018-09-22T10:45:02.067Z,1010.94
2018-09-22T10:46:02.074Z,1010.94
2018-09-22T10:47:02.043Z,1011.09
2018-09-22T10:48:02.030Z,1011
2018-09-22T10:49:02.021Z,1010.97
2018-09-22T10:50:02.015Z,1011.01
2018-09-22T10:51:02.201Z,1010.9
2018-09-22T10:52:01.993Z,1010.91
2018-09-22T10:53:01.983Z,1010.97
2018-09-22T10:54:01.968Z,1010.89
2018-09-22T10:55:01.960Z,1010.9
2018-09-22T10:56:01.943Z,1010.83
2018-09-22T10:57:01.932Z,1010.77
2018-09-22T10:58:01.922Z,1010.86
2018-09-22T10:59:01.911Z,1010.86
2018-09-22T11:00:01.903Z,1010.89
2018-09-22T11:01:01.888Z,1010.91
2018-09-22T11:02:01.882Z,1010.9
2018-09-22T11:03:01.870Z,1010.87
2018-09-22T11:04:01.859Z,1010.9
2018-09-22T11:05:01.853Z,1010.83
2018-09-22T11:06:01.840Z,1010.82
2018-09-22T11:07:01.827Z,1010.76
2018-09-22T11:08:01.820Z,1010.73
2018-09-22T11:09:01.809Z,1010.73
2018-09-22T11:10:01.799Z,1010.78
2018-09-22T11:11:01.790Z,1010.76
2018-09-22T11:12:01.777Z,1010.74
2018-09-22T11:13:01.768Z,1010.75
2018-09-22T11:14:01.759Z,1010.82
2018-09-22T11:15:01.750Z,1010.78
2018-09-22T11:16:01.737Z,1010.81
2018-09-22T11:17:01.729Z,1010.83
2018-09-22T11:18:01.719Z,1010.79
2018-09-22T11:19:01.709Z,1010.74
2018-09-22T11:20:01.696Z,1010.71
2018-09-22T11:21:01.689Z,1010.79
2018-09-22T11:22:01.676Z,1010.79
2018-09-22T11:23:01.666Z,1010.73
2018-09-22T11:24:01.660Z,1010.67
2018-09-22T11:25:01.647Z,1010.63
2018-09-22T11:26:01.638Z,1010.63
2018-09-22T11:27:01.774Z,1010.66
2018-09-22T11:28:01.620Z,1010.67
2018-09-22T11:29:01.610Z,1010.65
2018-09-22T11:30:01.600Z,1010.6
2018-09-22T11:31:01.588Z,1010.58
2018-09-22T11:32:01.579Z,1010.56
2018-09-22T11:33:01.572Z,1010.54
2018-09-22T11:34:01.557Z,1010.49
2018-09-22T11:35:01.558Z,1010.57
2018-09-22T11:36:01.540Z,1010.58
2018-09-22T11:37:01.528Z,1010.51
2018-09-22T11:38:01.519Z,1010.55
2018-09-22T11:39:01.508Z,1010.58
2018-09-22T11:40:01.504Z,1010.52
2018-09-22T11:41:01.489Z,1010.54
2018-09-22T11:42:01.483Z,1010.6
2018-09-22T11:43:01.471Z,1010.55
2018-09-22T11:44:01.459Z,1010.54
2018-09-22T11:45:01.448Z,1010.58
2018-09-22T11:46:01.448Z,1010.53
2018-09-22T11:47:01.434Z,1010.51
2018-09-22T11:48:01.421Z,1010.44
2018-09-22T11:49:01.410Z,1010.47
2018-09-22T11:50:01.402Z,1010.48
2018-09-22T11:51:01.466Z,1010.49
2018-09-22T11:52:01.382Z,1010.57
2018-09-22T11:53:01.373Z,1010.5
2018-09-22T11:54:01.363Z,1010.53
2018-09-22T11:55:01.357Z,1010.5
2018-09-22T11:56:01.342Z,1010.5
2018-09-22T11:57:01.335Z,1010.46
2018-09-22T11:58:01.321Z,1010.43
2018-09-22T11:59:01.312Z,1010.47
2018-09-22T12:00:01.310Z,1010.58
2018-09-22T12:01:01.313Z,1010.52
2018-09-22T12:02:01.375Z,1010.57
2018-09-22T12:03:01.271Z,1010.46
2018-09-22T12:04:01.265Z,1010.46
2018-09-22T12:05:01.251Z,1010.4
2018-09-22T12:06:01.457Z,1010.44
2018-09-22T12:07:01.230Z,1010.45
2018-09-22T12:08:01.219Z,1010.4
2018-09-22T12:09:01.208Z,1010.44